PWSweather.com
Personal Weather Stations
Station Observations
ISYDDANM23
Felsted, AabenraaDK 6200

FelstedAabenraaDK 6200

Lat: 54.977066, Lon: 9.507192

Elevation: 135

Station Type: Davis Vantage Pro 2 Plus 24H

http://www.valkaer.dk

High Low Average
Temperature 56.9°F13.8°C 48.6°F9.2°C 53.6°F12.0°C
Dew Point 53.9°F12.2°C 44.9°F7.2°C 50.8°F10.4°C
Winds 15.0 mph 24.1 kmh 2.3 mph 3.7 kmh 8.0 mph WSW12.9 kmh WSW
Wind Gusts 19.6 mph31.5 kmh 3.5 mph5.6 kmh 11.0 mph17.7 kmh
Humidity 93% 85% 90%
Pressure 29.92 in1013.2 mb 29.59 in1002.0 mb -
Precipitation 0.39 in9.9 mm - -
Hour Temp Dew Point Humidity Winds Wind Gusts Pressure Precip Precip Rate Daily Precip Total
12:00 AM 48.6°F9.2°C 44.9°F7.2°C 87% 4.6 mph SW7.4 kmh SW 8.1 mph13.0 kmh 29.92 in1013.2 mb - 0.00 in0.0 mm 0.00 in0.0 mm
12:10 AM 48.9°F9.4°C 45.2°F7.3°C 87% 5.8 mph SW9.3 kmh SW 10.4 mph16.7 kmh 29.91 in1012.9 mb - 0.00 in0.0 mm 0.00 in0.0 mm
12:15 AM 48.9°F9.4°C 45.2°F7.3°C 87% 4.6 mph SW7.4 kmh SW 10.4 mph16.7 kmh 29.91 in1012.9 mb - 0.00 in0.0 mm 0.00 in0.0 mm
12:20 AM 48.9°F9.4°C 45.2°F7.3°C 87% 5.8 mph WSW9.3 kmh WSW 10.4 mph16.7 kmh 29.91 in1012.9 mb - 0.00 in0.0 mm 0.00 in0.0 mm
12:25 AM 49.0°F9.4°C 45.3°F7.4°C 87% 4.6 mph SW7.4 kmh SW 8.1 mph13.0 kmh 29.91 in1012.9 mb - 0.00 in0.0 mm 0.00 in0.0 mm
12:30 AM 49.1°F9.5°C 45.4°F7.4°C 87% 3.5 mph SW5.6 kmh SW 5.8 mph9.3 kmh 29.91 in1012.9 mb - 0.00 in0.0 mm 0.00 in0.0 mm
12:35 AM 49.2°F9.6°C 45.5°F7.5°C 87% 6.9 mph WSW11.1 kmh WSW 13.8 mph22.2 kmh 29.91 in1012.9 mb - 0.00 in0.0 mm 0.00 in0.0 mm
12:40 AM 49.4°F9.7°C 45.7°F7.6°C 87% 4.6 mph WSW7.4 kmh WSW 6.9 mph11.1 kmh 29.90 in1012.5 mb - 0.00 in0.0 mm 0.00 in0.0 mm
12:45 AM 49.3°F9.6°C 45.6°F7.6°C 87% 4.6 mph SW7.4 kmh SW 11.5 mph18.5 kmh 29.90 in1012.5 mb - 0.00 in0.0 mm 0.00 in0.0 mm
12:50 AM 49.3°F9.6°C 45.6°F7.6°C 87% 6.9 mph WSW11.1 kmh WSW 10.4 mph16.7 kmh 29.90 in1012.5 mb - 0.00 in0.0 mm 0.00 in0.0 mm
12:55 AM 49.3°F9.6°C 45.6°F7.6°C 87% 4.6 mph WSW7.4 kmh WSW 6.9 mph11.1 kmh 29.89 in1012.2 mb - 0.00 in0.0 mm 0.00 in0.0 mm
01:00 AM 49.3°F9.6°C 45.6°F7.6°C 87% 6.9 mph WSW11.1 kmh WSW 10.4 mph16.7 kmh 29.89 in1012.2 mb - 0.00 in0.0 mm 0.00 in0.0 mm
01:10 AM 49.3°F9.6°C 45.6°F7.6°C 87% 4.6 mph SW7.4 kmh SW 4.6 mph7.4 kmh 29.89 in1012.2 mb - 0.00 in0.0 mm 0.00 in0.0 mm
01:15 AM 49.3°F9.6°C 45.6°F7.6°C 87% 3.5 mph SW5.6 kmh SW 4.6 mph7.4 kmh 29.89 in1012.2 mb - 0.00 in0.0 mm 0.00 in0.0 mm
01:20 AM 49.2°F9.6°C 45.5°F7.5°C 87% 3.5 mph WSW5.6 kmh WSW 6.9 mph11.1 kmh 29.88 in1011.9 mb - 0.00 in0.0 mm 0.00 in0.0 mm
01:25 AM 49.2°F9.6°C 45.5°F7.5°C 87% 4.6 mph WSW7.4 kmh WSW 8.1 mph13.0 kmh 29.88 in1011.9 mb - 0.00 in0.0 mm 0.00 in0.0 mm
01:30 AM 49.3°F9.6°C 45.6°F7.6°C 87% 5.8 mph WSW9.3 kmh WSW 9.2 mph14.8 kmh 29.88 in1011.9 mb - 0.00 in0.0 mm 0.00 in0.0 mm
01:35 AM 49.3°F9.6°C 45.6°F7.6°C 87% 4.6 mph SW7.4 kmh SW 6.9 mph11.1 kmh 29.88 in1011.9 mb - 0.00 in0.0 mm 0.00 in0.0 mm
01:40 AM 49.4°F9.7°C 45.7°F7.6°C 87% 3.5 mph SW5.6 kmh SW 4.6 mph7.4 kmh 29.88 in1011.9 mb - 0.00 in0.0 mm 0.00 in0.0 mm
01:45 AM 49.3°F9.6°C 45.6°F7.6°C 87% 4.6 mph WSW7.4 kmh WSW 8.1 mph13.0 kmh 29.88 in1011.9 mb - 0.00 in0.0 mm 0.00 in0.0 mm
01:50 AM 49.4°F9.7°C 45.7°F7.6°C 87% 5.8 mph WSW9.3 kmh WSW 8.1 mph13.0 kmh 29.87 in1011.5 mb - 0.00 in0.0 mm 0.00 in0.0 mm
01:55 AM 49.4°F9.7°C 45.7°F7.6°C 87% 5.8 mph SW9.3 kmh SW 8.1 mph13.0 kmh 29.87 in1011.5 mb - 0.00 in0.0 mm 0.00 in0.0 mm
02:00 AM 49.4°F9.7°C 45.7°F7.6°C 87% 3.5 mph WSW5.6 kmh WSW 4.6 mph7.4 kmh 29.87 in1011.5 mb - 0.00 in0.0 mm 0.00 in0.0 mm
02:10 AM 49.3°F9.6°C 45.6°F7.6°C 87% 4.6 mph WSW7.4 kmh WSW 6.9 mph11.1 kmh 29.86 in1011.2 mb - 0.00 in0.0 mm 0.00 in0.0 mm
02:15 AM 49.5°F9.7°C 45.8°F7.7°C 87% 5.8 mph WSW9.3 kmh WSW 6.9 mph11.1 kmh 29.86 in1011.2 mb - 0.00 in0.0 mm 0.00 in0.0 mm
02:20 AM 49.6°F9.8°C 45.9°F7.7°C 87% 3.5 mph WSW5.6 kmh WSW 8.1 mph13.0 kmh 29.86 in1011.2 mb - 0.00 in0.0 mm 0.00 in0.0 mm
02:25 AM 49.7°F9.8°C 46.0°F7.8°C 87% 4.6 mph WSW7.4 kmh WSW 4.6 mph7.4 kmh 29.86 in1011.2 mb - 0.00 in0.0 mm 0.00 in0.0 mm
02:30 AM 49.7°F9.8°C 46.0°F7.8°C 87% 6.9 mph WSW11.1 kmh WSW 10.4 mph16.7 kmh 29.86 in1011.2 mb - 0.00 in0.0 mm 0.00 in0.0 mm
02:35 AM 49.7°F9.8°C 46.0°F7.8°C 87% 5.8 mph WSW9.3 kmh WSW 10.4 mph16.7 kmh 29.86 in1011.2 mb - 0.00 in0.0 mm 0.00 in0.0 mm
02:40 AM 49.8°F9.9°C 46.1°F7.8°C 87% 5.8 mph SW9.3 kmh SW 4.6 mph7.4 kmh 29.85 in1010.8 mb - 0.00 in0.0 mm 0.00 in0.0 mm
02:45 AM 49.7°F9.8°C 46.0°F7.8°C 87% 4.6 mph WSW7.4 kmh WSW 8.1 mph13.0 kmh 29.85 in1010.8 mb - 0.00 in0.0 mm 0.00 in0.0 mm
02:50 AM 49.8°F9.9°C 46.1°F7.8°C 87% 5.8 mph SW9.3 kmh SW 8.1 mph13.0 kmh 29.85 in1010.8 mb - 0.00 in0.0 mm 0.00 in0.0 mm
02:55 AM 49.9°F9.9°C 46.2°F7.9°C 87% 4.6 mph WSW7.4 kmh WSW 8.1 mph13.0 kmh 29.85 in1010.8 mb - 0.00 in0.0 mm 0.00 in0.0 mm
03:00 AM 49.9°F9.9°C 46.2°F7.9°C 87% 4.6 mph SW7.4 kmh SW 8.1 mph13.0 kmh 29.85 in1010.8 mb - 0.00 in0.0 mm 0.00 in0.0 mm
03:10 AM 50.0°F10.0°C 46.3°F7.9°C 87% 5.8 mph SW9.3 kmh SW 10.4 mph16.7 kmh 29.84 in1010.5 mb - 0.00 in0.0 mm 0.00 in0.0 mm
03:15 AM 49.9°F9.9°C 46.2°F7.9°C 87% 4.6 mph SW7.4 kmh SW 8.1 mph13.0 kmh 29.84 in1010.5 mb - 0.00 in0.0 mm 0.00 in0.0 mm
03:20 AM 50.0°F10.0°C 46.0°F7.8°C 86% 5.8 mph SW9.3 kmh SW 6.9 mph11.1 kmh 29.83 in1010.2 mb - 0.00 in0.0 mm 0.00 in0.0 mm
03:25 AM 50.0°F10.0°C 46.0°F7.8°C 86% 4.6 mph SW7.4 kmh SW 8.1 mph13.0 kmh 29.83 in1010.2 mb - 0.00 in0.0 mm 0.00 in0.0 mm
03:30 AM 50.0°F10.0°C 46.0°F7.8°C 86% 4.6 mph SW7.4 kmh SW 8.1 mph13.0 kmh 29.83 in1010.2 mb - 0.00 in0.0 mm 0.00 in0.0 mm
03:35 AM 50.0°F10.0°C 46.3°F7.9°C 87% 5.8 mph SW9.3 kmh SW 9.2 mph14.8 kmh 29.83 in1010.2 mb - 0.00 in0.0 mm 0.00 in0.0 mm
03:40 AM 50.1°F10.1°C 46.1°F7.8°C 86% 4.6 mph SW7.4 kmh SW 8.1 mph13.0 kmh 29.83 in1010.2 mb - 0.00 in0.0 mm 0.00 in0.0 mm
03:45 AM 50.1°F10.1°C 46.1°F7.8°C 86% 6.9 mph SW11.1 kmh SW 9.2 mph14.8 kmh 29.83 in1010.2 mb - 0.00 in0.0 mm 0.00 in0.0 mm
03:50 AM 50.1°F10.1°C 46.1°F7.8°C 86% 5.8 mph SW9.3 kmh SW 6.9 mph11.1 kmh 29.82 in1009.8 mb - 0.00 in0.0 mm 0.00 in0.0 mm
03:55 AM 50.1°F10.1°C 46.1°F7.8°C 86% 4.6 mph SW7.4 kmh SW 8.1 mph13.0 kmh 29.82 in1009.8 mb - 0.00 in0.0 mm 0.00 in0.0 mm
04:00 AM 50.0°F10.0°C 46.3°F7.9°C 87% 4.6 mph SW7.4 kmh SW 8.1 mph13.0 kmh 29.82 in1009.8 mb - 0.00 in0.0 mm 0.00 in0.0 mm
04:10 AM 50.0°F10.0°C 46.0°F7.8°C 86% 5.8 mph SW9.3 kmh SW 9.2 mph14.8 kmh 29.82 in1009.8 mb - 0.00 in0.0 mm 0.00 in0.0 mm
04:15 AM 50.1°F10.1°C 46.1°F7.8°C 86% 4.6 mph SW7.4 kmh SW 6.9 mph11.1 kmh 29.82 in1009.8 mb - 0.00 in0.0 mm 0.00 in0.0 mm
04:20 AM 50.1°F10.1°C 46.1°F7.8°C 86% 5.8 mph SW9.3 kmh SW 10.4 mph16.7 kmh 29.82 in1009.8 mb - 0.00 in0.0 mm 0.00 in0.0 mm
04:25 AM 50.0°F10.0°C 46.0°F7.8°C 86% 9.2 mph SW14.8 kmh SW 12.7 mph20.4 kmh 29.82 in1009.8 mb - 0.00 in0.0 mm 0.00 in0.0 mm
04:30 AM 49.9°F9.9°C 45.9°F7.7°C 86% 6.9 mph SW11.1 kmh SW 10.4 mph16.7 kmh 29.82 in1009.8 mb - 0.00 in0.0 mm 0.00 in0.0 mm
04:35 AM 49.8°F9.9°C 46.1°F7.8°C 87% 6.9 mph SW11.1 kmh SW 11.5 mph18.5 kmh 29.81 in1009.5 mb - 0.00 in0.0 mm 0.00 in0.0 mm
04:40 AM 49.8°F9.9°C 46.1°F7.8°C 87% 6.9 mph SW11.1 kmh SW 8.1 mph13.0 kmh 29.81 in1009.5 mb - 0.00 in0.0 mm 0.00 in0.0 mm
04:45 AM 49.7°F9.8°C 46.0°F7.8°C 87% 5.8 mph SW9.3 kmh SW 8.1 mph13.0 kmh 29.81 in1009.5 mb - 0.00 in0.0 mm 0.00 in0.0 mm
04:50 AM 49.7°F9.8°C 46.0°F7.8°C 87% 5.8 mph SW9.3 kmh SW 9.2 mph14.8 kmh 29.80 in1009.1 mb - 0.00 in0.0 mm 0.00 in0.0 mm
04:55 AM 49.7°F9.8°C 46.3°F7.9°C 88% 3.5 mph SW5.6 kmh SW 8.1 mph13.0 kmh 29.80 in1009.1 mb - 0.00 in0.0 mm 0.00 in0.0 mm
05:00 AM 49.8°F9.9°C 46.4°F8.0°C 88% 5.8 mph SW9.3 kmh SW 6.9 mph11.1 kmh 29.80 in1009.1 mb - 0.00 in0.0 mm 0.00 in0.0 mm
05:10 AM 49.9°F9.9°C 46.5°F8.1°C 88% 5.8 mph SW9.3 kmh SW 11.5 mph18.5 kmh 29.80 in1009.1 mb - 0.00 in0.0 mm 0.00 in0.0 mm
05:15 AM 50.0°F10.0°C 46.6°F8.1°C 88% 5.8 mph SW9.3 kmh SW 8.1 mph13.0 kmh 29.80 in1009.1 mb - 0.00 in0.0 mm 0.00 in0.0 mm
05:20 AM 50.1°F10.1°C 46.6°F8.1°C 88% 5.8 mph SW9.3 kmh SW 9.2 mph14.8 kmh 29.79 in1008.8 mb - 0.00 in0.0 mm 0.00 in0.0 mm
05:25 AM 50.1°F10.1°C 46.7°F8.2°C 88% 6.9 mph SW11.1 kmh SW 10.4 mph16.7 kmh 29.79 in1008.8 mb - 0.00 in0.0 mm 0.00 in0.0 mm
05:30 AM 50.2°F10.1°C 46.8°F8.2°C 88% 8.1 mph SW13.0 kmh SW 11.5 mph18.5 kmh 29.79 in1008.8 mb - 0.00 in0.0 mm 0.00 in0.0 mm
05:35 AM 50.3°F10.2°C 46.9°F8.3°C 88% 5.8 mph SW9.3 kmh SW 9.2 mph14.8 kmh 29.78 in1008.5 mb - 0.00 in0.0 mm 0.00 in0.0 mm
05:40 AM 50.4°F10.2°C 47.3°F8.5°C 89% 6.9 mph SW11.1 kmh SW 9.2 mph14.8 kmh 29.78 in1008.5 mb - 0.01 in0.3 mm 0.01 in0.3 mm
05:45 AM 50.4°F10.2°C 47.3°F8.5°C 89% 6.9 mph SW11.1 kmh SW 10.4 mph16.7 kmh 29.78 in1008.5 mb - 0.01 in0.3 mm 0.01 in0.3 mm
05:50 AM 50.5°F10.3°C 47.4°F8.6°C 89% 8.1 mph SW13.0 kmh SW 12.7 mph20.4 kmh 29.78 in1008.5 mb - 0.01 in0.3 mm 0.01 in0.3 mm
05:55 AM 50.6°F10.3°C 47.5°F8.6°C 89% 6.9 mph SW11.1 kmh SW 10.4 mph16.7 kmh 29.78 in1008.5 mb - 0.01 in0.3 mm 0.01 in0.3 mm
06:00 AM 50.7°F10.4°C 47.6°F8.7°C 89% 8.1 mph SW13.0 kmh SW 11.5 mph18.5 kmh 29.77 in1008.1 mb - 0.01 in0.3 mm 0.01 in0.3 mm
06:10 AM 51.0°F10.6°C 47.8°F8.8°C 89% 8.1 mph SW13.0 kmh SW 11.5 mph18.5 kmh 29.77 in1008.1 mb - 0.02 in0.5 mm 0.02 in0.5 mm
06:15 AM 51.1°F10.6°C 48.0°F8.9°C 89% 8.1 mph SW13.0 kmh SW 12.7 mph20.4 kmh 29.77 in1008.1 mb - 0.02 in0.5 mm 0.02 in0.5 mm
06:20 AM 51.2°F10.7°C 48.1°F8.9°C 89% 8.1 mph SW13.0 kmh SW 11.5 mph18.5 kmh 29.77 in1008.1 mb - 0.02 in0.5 mm 0.02 in0.5 mm
06:25 AM 51.2°F10.7°C 48.1°F8.9°C 89% 9.2 mph SW14.8 kmh SW 15.0 mph24.1 kmh 29.77 in1008.1 mb - 0.02 in0.5 mm 0.02 in0.5 mm
06:30 AM 51.3°F10.7°C 48.2°F9.0°C 89% 9.2 mph SW14.8 kmh SW 12.7 mph20.4 kmh 29.77 in1008.1 mb - 0.02 in0.5 mm 0.02 in0.5 mm
06:35 AM 51.4°F10.8°C 48.3°F9.1°C 89% 9.2 mph WSW14.8 kmh WSW 16.1 mph25.9 kmh 29.77 in1008.1 mb - 0.02 in0.5 mm 0.02 in0.5 mm
06:40 AM 51.4°F10.8°C 48.6°F9.2°C 90% 8.1 mph SW13.0 kmh SW 10.4 mph16.7 kmh 29.77 in1008.1 mb - 0.01 in0.3 mm 0.02 in0.5 mm
06:45 AM 51.4°F10.8°C 48.6°F9.2°C 90% 8.1 mph SW13.0 kmh SW 12.7 mph20.4 kmh 29.76 in1007.8 mb - 0.02 in0.5 mm 0.02 in0.5 mm
06:50 AM 51.5°F10.8°C 48.7°F9.3°C 90% 8.1 mph SW13.0 kmh SW 11.5 mph18.5 kmh 29.76 in1007.8 mb - 0.02 in0.5 mm 0.02 in0.5 mm
06:55 AM 51.5°F10.8°C 48.7°F9.3°C 90% 9.2 mph SW14.8 kmh SW 16.1 mph25.9 kmh 29.75 in1007.5 mb - 0.02 in0.5 mm 0.02 in0.5 mm
07:00 AM 51.6°F10.9°C 48.8°F9.3°C 90% 10.4 mph SW16.7 kmh SW 19.6 mph31.5 kmh 29.75 in1007.5 mb - 0.02 in0.5 mm 0.02 in0.5 mm
07:10 AM 51.8°F11.0°C 49.0°F9.4°C 90% 8.1 mph SW13.0 kmh SW 11.5 mph18.5 kmh 29.74 in1007.1 mb - 0.01 in0.3 mm 0.02 in0.5 mm
07:15 AM 51.8°F11.0°C 49.0°F9.4°C 90% 9.2 mph SW14.8 kmh SW 11.5 mph18.5 kmh 29.74 in1007.1 mb - 0.01 in0.3 mm 0.02 in0.5 mm
07:20 AM 51.8°F11.0°C 49.0°F9.4°C 90% 9.2 mph SW14.8 kmh SW 11.5 mph18.5 kmh 29.73 in1006.8 mb - 0.01 in0.3 mm 0.02 in0.5 mm
07:25 AM 51.7°F10.9°C 48.9°F9.4°C 90% 8.1 mph SW13.0 kmh SW 12.7 mph20.4 kmh 29.73 in1006.8 mb - 0.01 in0.3 mm 0.02 in0.5 mm
07:30 AM 51.7°F10.9°C 48.9°F9.4°C 90% 11.5 mph SW18.5 kmh SW 17.3 mph27.8 kmh 29.73 in1006.8 mb - 0.01 in0.3 mm 0.02 in0.5 mm
07:35 AM 51.8°F11.0°C 49.0°F9.4°C 90% 11.5 mph SW18.5 kmh SW 15.0 mph24.1 kmh 29.73 in1006.8 mb - 0.01 in0.3 mm 0.02 in0.5 mm
07:40 AM 51.8°F11.0°C 49.3°F9.6°C 91% 9.2 mph SW14.8 kmh SW 13.8 mph22.2 kmh 29.73 in1006.8 mb - 0.01 in0.3 mm 0.02 in0.5 mm
07:45 AM 51.8°F11.0°C 49.3°F9.6°C 91% 8.1 mph SW13.0 kmh SW 12.7 mph20.4 kmh 29.73 in1006.8 mb - 0.00 in0.0 mm 0.02 in0.5 mm
07:50 AM 52.0°F11.1°C 49.4°F9.7°C 91% 10.4 mph WSW16.7 kmh WSW 15.0 mph24.1 kmh 29.73 in1006.8 mb - 0.01 in0.3 mm 0.03 in0.8 mm
07:55 AM 52.0°F11.1°C 49.4°F9.7°C 91% 8.1 mph WSW13.0 kmh WSW 12.7 mph20.4 kmh 29.73 in1006.8 mb - 0.01 in0.3 mm 0.03 in0.8 mm
08:00 AM 52.0°F11.1°C 49.5°F9.7°C 91% 8.1 mph SW13.0 kmh SW 12.7 mph20.4 kmh 29.72 in1006.4 mb - 0.01 in0.3 mm 0.03 in0.8 mm
08:10 AM 52.2°F11.2°C 49.7°F9.8°C 91% 10.4 mph SW16.7 kmh SW 11.5 mph18.5 kmh 29.73 in1006.8 mb - 0.01 in0.3 mm 0.03 in0.8 mm
08:15 AM 52.3°F11.3°C 49.7°F9.8°C 91% 9.2 mph SW14.8 kmh SW 11.5 mph18.5 kmh 29.73 in1006.8 mb - 0.01 in0.3 mm 0.03 in0.8 mm
08:20 AM 52.4°F11.3°C 49.8°F9.9°C 91% 8.1 mph SW13.0 kmh SW 11.5 mph18.5 kmh 29.73 in1006.8 mb - 0.01 in0.3 mm 0.03 in0.8 mm
08:25 AM 52.4°F11.3°C 49.8°F9.9°C 91% 10.4 mph SW16.7 kmh SW 15.0 mph24.1 kmh 29.73 in1006.8 mb - 0.01 in0.3 mm 0.03 in0.8 mm
08:30 AM 52.6°F11.4°C 50.0°F10.0°C 91% 11.5 mph WSW18.5 kmh WSW 19.6 mph31.5 kmh 29.72 in1006.4 mb - 0.02 in0.5 mm 0.04 in1.0 mm
08:35 AM 52.7°F11.5°C 50.4°F10.2°C 92% 10.4 mph SW16.7 kmh SW 13.8 mph22.2 kmh 29.72 in1006.4 mb - 0.02 in0.5 mm 0.04 in1.0 mm
08:40 AM 52.9°F11.6°C 50.6°F10.3°C 92% 9.2 mph WSW14.8 kmh WSW 11.5 mph18.5 kmh 29.72 in1006.4 mb - 0.02 in0.5 mm 0.04 in1.0 mm
08:45 AM 53.0°F11.7°C 50.8°F10.4°C 92% 11.5 mph SW18.5 kmh SW 16.1 mph25.9 kmh 29.72 in1006.4 mb - 0.02 in0.5 mm 0.04 in1.0 mm
08:50 AM 53.2°F11.8°C 51.0°F10.6°C 92% 11.5 mph WSW18.5 kmh WSW 15.0 mph24.1 kmh 29.72 in1006.4 mb - 0.01 in0.3 mm 0.04 in1.0 mm
08:55 AM 53.4°F11.9°C 51.1°F10.6°C 92% 9.2 mph WSW14.8 kmh WSW 13.8 mph22.2 kmh 29.72 in1006.4 mb - 0.01 in0.3 mm 0.04 in1.0 mm
09:00 AM 53.5°F11.9°C 51.2°F10.7°C 92% 11.5 mph WSW18.5 kmh WSW 19.6 mph31.5 kmh 29.72 in1006.4 mb - 0.01 in0.3 mm 0.04 in1.0 mm
09:10 AM 53.7°F12.1°C 51.4°F10.8°C 92% 10.4 mph WSW16.7 kmh WSW 13.8 mph22.2 kmh 29.72 in1006.4 mb - 0.01 in0.3 mm 0.04 in1.0 mm
09:15 AM 53.9°F12.2°C 51.6°F10.9°C 92% 8.1 mph WSW13.0 kmh WSW 11.5 mph18.5 kmh 29.72 in1006.4 mb - 0.02 in0.5 mm 0.05 in1.3 mm
09:20 AM 54.0°F12.2°C 51.7°F10.9°C 92% 11.5 mph WSW18.5 kmh WSW 15.0 mph24.1 kmh 29.72 in1006.4 mb - 0.02 in0.5 mm 0.05 in1.3 mm
09:25 AM 54.4°F12.4°C 52.1°F11.2°C 92% 9.2 mph WSW14.8 kmh WSW 12.7 mph20.4 kmh 29.72 in1006.4 mb - 0.02 in0.5 mm 0.05 in1.3 mm
09:30 AM 54.6°F12.6°C 52.3°F11.3°C 92% 11.5 mph W18.5 kmh W 12.7 mph20.4 kmh 29.72 in1006.4 mb - 0.02 in0.5 mm 0.05 in1.3 mm
09:35 AM 55.0°F12.8°C 52.7°F11.5°C 92% 10.4 mph WSW16.7 kmh WSW 12.7 mph20.4 kmh 29.72 in1006.4 mb - 0.01 in0.3 mm 0.05 in1.3 mm
09:40 AM 55.0°F12.8°C 52.4°F11.3°C 91% 10.4 mph WSW16.7 kmh WSW 11.5 mph18.5 kmh 29.72 in1006.4 mb - 0.01 in0.3 mm 0.05 in1.3 mm
09:45 AM 55.2°F12.9°C 52.6°F11.4°C 91% 9.2 mph WSW14.8 kmh WSW 12.7 mph20.4 kmh 29.72 in1006.4 mb - 0.01 in0.3 mm 0.05 in1.3 mm
09:50 AM 55.2°F12.9°C 52.6°F11.4°C 91% 10.4 mph WSW16.7 kmh WSW 11.5 mph18.5 kmh 29.72 in1006.4 mb - 0.01 in0.3 mm 0.05 in1.3 mm
09:55 AM 54.9°F12.7°C 52.3°F11.3°C 91% 8.1 mph WSW13.0 kmh WSW 11.5 mph18.5 kmh 29.71 in1006.1 mb - 0.01 in0.3 mm 0.05 in1.3 mm
10:00 AM 54.9°F12.7°C 52.3°F11.3°C 91% 11.5 mph WSW18.5 kmh WSW 16.1 mph25.9 kmh 29.72 in1006.4 mb - 0.01 in0.3 mm 0.05 in1.3 mm
10:10 AM 55.0°F12.8°C 52.4°F11.3°C 91% 9.2 mph WSW14.8 kmh WSW 16.1 mph25.9 kmh 29.72 in1006.4 mb - 0.01 in0.3 mm 0.05 in1.3 mm
10:15 AM 54.7°F12.6°C 51.8°F11.0°C 90% 11.5 mph WSW18.5 kmh WSW 16.1 mph25.9 kmh 29.71 in1006.1 mb - 0.00 in0.0 mm 0.05 in1.3 mm
10:20 AM 54.6°F12.6°C 52.0°F11.1°C 91% 8.1 mph WSW13.0 kmh WSW 9.2 mph14.8 kmh 29.71 in1006.1 mb - 0.00 in0.0 mm 0.05 in1.3 mm
10:25 AM 54.7°F12.6°C 52.1°F11.2°C 91% 6.9 mph WSW11.1 kmh WSW 11.5 mph18.5 kmh 29.71 in1006.1 mb - 0.00 in0.0 mm 0.05 in1.3 mm
10:30 AM 54.7°F12.6°C 52.1°F11.2°C 91% 6.9 mph W11.1 kmh W 9.2 mph14.8 kmh 29.71 in1006.1 mb - 0.00 in0.0 mm 0.05 in1.3 mm
10:35 AM 54.8°F12.7°C 52.2°F11.2°C 91% 5.8 mph W9.3 kmh W 6.9 mph11.1 kmh 29.71 in1006.1 mb - 0.00 in0.0 mm 0.05 in1.3 mm
10:40 AM 54.9°F12.7°C 52.3°F11.3°C 91% 6.9 mph WSW11.1 kmh WSW 11.5 mph18.5 kmh 29.71 in1006.1 mb - 0.00 in0.0 mm 0.05 in1.3 mm
10:45 AM 55.4°F13.0°C 52.8°F11.6°C 91% 8.1 mph W13.0 kmh W 11.5 mph18.5 kmh 29.72 in1006.4 mb - 0.00 in0.0 mm 0.05 in1.3 mm
10:50 AM 55.4°F13.0°C 52.8°F11.6°C 91% 10.4 mph WSW16.7 kmh WSW 12.7 mph20.4 kmh 29.72 in1006.4 mb - 0.00 in0.0 mm 0.05 in1.3 mm
10:55 AM 55.5°F13.1°C 52.6°F11.4°C 90% 10.4 mph WSW16.7 kmh WSW 13.8 mph22.2 kmh 29.71 in1006.1 mb - 0.00 in0.0 mm 0.05 in1.3 mm
11:00 AM 55.7°F13.2°C 52.8°F11.6°C 90% 10.4 mph WSW16.7 kmh WSW 15.0 mph24.1 kmh 29.71 in1006.1 mb - 0.00 in0.0 mm 0.05 in1.3 mm
11:10 AM 56.3°F13.5°C 53.1°F11.7°C 89% 8.1 mph WSW13.0 kmh WSW 10.4 mph16.7 kmh 29.71 in1006.1 mb - 0.00 in0.0 mm 0.05 in1.3 mm
11:15 AM 56.1°F13.4°C 52.6°F11.4°C 88% 10.4 mph WSW16.7 kmh WSW 13.8 mph22.2 kmh 29.71 in1006.1 mb - 0.00 in0.0 mm 0.05 in1.3 mm
11:20 AM 55.7°F13.2°C 52.5°F11.4°C 89% 10.4 mph WSW16.7 kmh WSW 13.8 mph22.2 kmh 29.71 in1006.1 mb - 0.00 in0.0 mm 0.05 in1.3 mm
11:25 AM 56.0°F13.3°C 52.8°F11.6°C 89% 10.4 mph W16.7 kmh W 11.5 mph18.5 kmh 29.72 in1006.4 mb - 0.00 in0.0 mm 0.05 in1.3 mm
11:30 AM 56.4°F13.6°C 52.9°F11.6°C 88% 10.4 mph WSW16.7 kmh WSW 11.5 mph18.5 kmh 29.72 in1006.4 mb - 0.00 in0.0 mm 0.05 in1.3 mm
11:35 AM 56.4°F13.6°C 52.9°F11.6°C 88% 9.2 mph WSW14.8 kmh WSW 11.5 mph18.5 kmh 29.72 in1006.4 mb - 0.00 in0.0 mm 0.05 in1.3 mm
11:40 AM 56.1°F13.4°C 52.3°F11.3°C 87% 8.1 mph WSW13.0 kmh WSW 12.7 mph20.4 kmh 29.71 in1006.1 mb - 0.00 in0.0 mm 0.05 in1.3 mm
11:45 AM 56.0°F13.3°C 52.5°F11.4°C 88% 5.8 mph WSW9.3 kmh WSW 8.1 mph13.0 kmh 29.71 in1006.1 mb - 0.00 in0.0 mm 0.05 in1.3 mm
11:50 AM 56.7°F13.7°C 53.2°F11.8°C 88% 6.9 mph WSW11.1 kmh WSW 9.2 mph14.8 kmh 29.71 in1006.1 mb - 0.00 in0.0 mm 0.05 in1.3 mm
11:55 AM 56.8°F13.8°C 53.0°F11.7°C 87% 8.1 mph WSW13.0 kmh WSW 11.5 mph18.5 kmh 29.71 in1006.1 mb - 0.00 in0.0 mm 0.05 in1.3 mm
12:00 PM 56.9°F13.8°C 53.4°F11.9°C 88% 5.8 mph WSW9.3 kmh WSW 10.4 mph16.7 kmh 29.71 in1006.1 mb - 0.00 in0.0 mm 0.05 in1.3 mm
12:10 PM 56.6°F13.7°C 52.5°F11.4°C 86% 8.1 mph WSW13.0 kmh WSW 10.4 mph16.7 kmh 29.71 in1006.1 mb - 0.00 in0.0 mm 0.05 in1.3 mm
12:15 PM 56.7°F13.7°C 52.6°F11.4°C 86% 9.2 mph W14.8 kmh W 11.5 mph18.5 kmh 29.71 in1006.1 mb - 0.00 in0.0 mm 0.05 in1.3 mm
12:20 PM 56.3°F13.5°C 51.9°F11.1°C 85% 8.1 mph WSW13.0 kmh WSW 11.5 mph18.5 kmh 29.71 in1006.1 mb - 0.00 in0.0 mm 0.05 in1.3 mm
12:25 PM 56.2°F13.4°C 52.4°F11.3°C 87% 8.1 mph WSW13.0 kmh WSW 11.5 mph18.5 kmh 29.71 in1006.1 mb - 0.00 in0.0 mm 0.05 in1.3 mm
12:30 PM 56.1°F13.4°C 52.3°F11.3°C 87% 9.2 mph WSW14.8 kmh WSW 10.4 mph16.7 kmh 29.71 in1006.1 mb - 0.00 in0.0 mm 0.05 in1.3 mm
12:35 PM 56.2°F13.4°C 52.4°F11.3°C 87% 6.9 mph WSW11.1 kmh WSW 11.5 mph18.5 kmh 29.71 in1006.1 mb - 0.00 in0.0 mm 0.05 in1.3 mm
12:40 PM 56.7°F13.7°C 52.9°F11.6°C 87% 6.9 mph W11.1 kmh W 10.4 mph16.7 kmh 29.71 in1006.1 mb - 0.00 in0.0 mm 0.05 in1.3 mm
12:45 PM 56.3°F13.5°C 52.2°F11.2°C 86% 11.5 mph WSW18.5 kmh WSW 13.8 mph22.2 kmh 29.71 in1006.1 mb - 0.00 in0.0 mm 0.05 in1.3 mm
12:50 PM 56.1°F13.4°C 52.3°F11.3°C 87% 10.4 mph WSW16.7 kmh WSW 11.5 mph18.5 kmh 29.71 in1006.1 mb - 0.00 in0.0 mm 0.05 in1.3 mm
12:55 PM 56.0°F13.3°C 52.5°F11.4°C 88% 8.1 mph WSW13.0 kmh WSW 10.4 mph16.7 kmh 29.71 in1006.1 mb - 0.00 in0.0 mm 0.05 in1.3 mm
01:00 PM 56.0°F13.3°C 52.5°F11.4°C 88% 9.2 mph W14.8 kmh W 13.8 mph22.2 kmh 29.71 in1006.1 mb - 0.00 in0.0 mm 0.05 in1.3 mm
01:10 PM 56.0°F13.3°C 52.5°F11.4°C 88% 10.4 mph WSW16.7 kmh WSW 12.7 mph20.4 kmh 29.71 in1006.1 mb - 0.00 in0.0 mm 0.05 in1.3 mm
01:15 PM 55.6°F13.1°C 52.4°F11.3°C 89% 9.2 mph W14.8 kmh W 11.5 mph18.5 kmh 29.71 in1006.1 mb - 0.00 in0.0 mm 0.05 in1.3 mm
01:20 PM 55.7°F13.2°C 52.8°F11.6°C 90% 6.9 mph W11.1 kmh W 11.5 mph18.5 kmh 29.71 in1006.1 mb - 0.00 in0.0 mm 0.05 in1.3 mm
01:25 PM 55.6°F13.1°C 52.7°F11.5°C 90% 6.9 mph WSW11.1 kmh WSW 8.1 mph13.0 kmh 29.71 in1006.1 mb - 0.00 in0.0 mm 0.05 in1.3 mm
01:30 PM 55.5°F13.1°C 52.6°F11.4°C 90% 9.2 mph WSW14.8 kmh WSW 12.7 mph20.4 kmh 29.71 in1006.1 mb - 0.00 in0.0 mm 0.05 in1.3 mm
01:35 PM 55.6°F13.1°C 53.0°F11.7°C 91% 6.9 mph WSW11.1 kmh WSW 10.4 mph16.7 kmh 29.71 in1006.1 mb - 0.00 in0.0 mm 0.05 in1.3 mm
01:40 PM 55.6°F13.1°C 53.0°F11.7°C 91% 6.9 mph W11.1 kmh W 8.1 mph13.0 kmh 29.70 in1005.8 mb - 0.00 in0.0 mm 0.05 in1.3 mm
01:45 PM 55.8°F13.2°C 53.2°F11.8°C 91% 9.2 mph W14.8 kmh W 11.5 mph18.5 kmh 29.70 in1005.8 mb - 0.00 in0.0 mm 0.05 in1.3 mm
01:50 PM 55.7°F13.2°C 53.1°F11.7°C 91% 6.9 mph WSW11.1 kmh WSW 9.2 mph14.8 kmh 29.70 in1005.8 mb - 0.00 in0.0 mm 0.05 in1.3 mm
01:55 PM 55.7°F13.2°C 53.1°F11.7°C 91% 8.1 mph WSW13.0 kmh WSW 9.2 mph14.8 kmh 29.70 in1005.8 mb - 0.00 in0.0 mm 0.05 in1.3 mm
02:00 PM 55.7°F13.2°C 53.1°F11.7°C 91% 5.8 mph WSW9.3 kmh WSW 6.9 mph11.1 kmh 29.70 in1005.8 mb - 0.00 in0.0 mm 0.05 in1.3 mm
02:10 PM 55.5°F13.1°C 52.9°F11.6°C 91% 8.1 mph W13.0 kmh W 11.5 mph18.5 kmh 29.70 in1005.8 mb - 0.01 in0.3 mm 0.06 in1.5 mm
02:15 PM 55.2°F12.9°C 52.6°F11.4°C 91% 5.8 mph WSW9.3 kmh WSW 8.1 mph13.0 kmh 29.70 in1005.8 mb - 0.01 in0.3 mm 0.06 in1.5 mm
02:20 PM 55.2°F12.9°C 52.6°F11.4°C 91% 5.8 mph WSW9.3 kmh WSW 9.2 mph14.8 kmh 29.70 in1005.8 mb - 0.01 in0.3 mm 0.06 in1.5 mm
02:25 PM 55.0°F12.8°C 52.4°F11.3°C 91% 6.9 mph WSW11.1 kmh WSW 10.4 mph16.7 kmh 29.70 in1005.8 mb - 0.01 in0.3 mm 0.06 in1.5 mm
02:30 PM 55.0°F12.8°C 52.8°F11.6°C 92% 8.1 mph WSW13.0 kmh WSW 11.5 mph18.5 kmh 29.71 in1006.1 mb - 0.02 in0.5 mm 0.06 in1.5 mm
02:35 PM 55.2°F12.9°C 52.9°F11.6°C 92% 6.9 mph WSW11.1 kmh WSW 9.2 mph14.8 kmh 29.70 in1005.8 mb - 0.02 in0.5 mm 0.06 in1.5 mm
02:40 PM 55.3°F12.9°C 53.0°F11.7°C 92% 5.8 mph WSW9.3 kmh WSW 8.1 mph13.0 kmh 29.70 in1005.8 mb - 0.02 in0.5 mm 0.06 in1.5 mm
02:45 PM 55.4°F13.0°C 53.1°F11.7°C 92% 5.8 mph WSW9.3 kmh WSW 8.1 mph13.0 kmh 29.70 in1005.8 mb - 0.02 in0.5 mm 0.06 in1.5 mm
02:50 PM 55.4°F13.0°C 53.1°F11.7°C 92% 6.9 mph WSW11.1 kmh WSW 11.5 mph18.5 kmh 29.71 in1006.1 mb - 0.02 in0.5 mm 0.07 in1.8 mm
02:55 PM 55.2°F12.9°C 52.9°F11.6°C 92% 8.1 mph WSW13.0 kmh WSW 10.4 mph16.7 kmh 29.71 in1006.1 mb - 0.02 in0.5 mm 0.07 in1.8 mm
03:00 PM 55.2°F12.9°C 52.9°F11.6°C 92% 4.6 mph WSW7.4 kmh WSW 6.9 mph11.1 kmh 29.70 in1005.8 mb - 0.02 in0.5 mm 0.07 in1.8 mm
03:10 PM 55.2°F12.9°C 52.9°F11.6°C 92% 5.8 mph WSW9.3 kmh WSW 6.9 mph11.1 kmh 29.70 in1005.8 mb - 0.02 in0.5 mm 0.07 in1.8 mm
03:15 PM 55.2°F12.9°C 52.9°F11.6°C 92% 4.6 mph WSW7.4 kmh WSW 6.9 mph11.1 kmh 29.70 in1005.8 mb - 0.02 in0.5 mm 0.07 in1.8 mm
03:20 PM 55.4°F13.0°C 53.1°F11.7°C 92% 4.6 mph W7.4 kmh W 5.8 mph9.3 kmh 29.70 in1005.8 mb - 0.02 in0.5 mm 0.08 in2.0 mm
03:25 PM 55.5°F13.1°C 53.2°F11.8°C 92% 5.8 mph WSW9.3 kmh WSW 8.1 mph13.0 kmh 29.70 in1005.8 mb - 0.02 in0.5 mm 0.08 in2.0 mm
03:30 PM 55.2°F12.9°C 53.0°F11.7°C 92% 5.8 mph WSW9.3 kmh WSW 6.9 mph11.1 kmh 29.70 in1005.8 mb - 0.02 in0.5 mm 0.09 in2.3 mm
03:35 PM 55.1°F12.8°C 52.8°F11.6°C 92% 5.8 mph SW9.3 kmh SW 4.6 mph7.4 kmh 29.70 in1005.8 mb - 0.03 in0.8 mm 0.09 in2.3 mm
03:40 PM 55.2°F12.9°C 52.9°F11.6°C 92% 4.6 mph SW7.4 kmh SW 6.9 mph11.1 kmh 29.70 in1005.8 mb - 0.03 in0.8 mm 0.09 in2.3 mm
03:45 PM 55.2°F12.9°C 52.9°F11.6°C 92% 4.6 mph WSW7.4 kmh WSW 6.9 mph11.1 kmh 29.70 in1005.8 mb - 0.04 in1.0 mm 0.10 in2.5 mm
03:50 PM 55.2°F12.9°C 52.9°F11.6°C 92% 4.6 mph WSW7.4 kmh WSW 6.9 mph11.1 kmh 29.69 in1005.4 mb - 0.04 in1.0 mm 0.10 in2.5 mm
03:55 PM 55.2°F12.9°C 53.0°F11.7°C 92% 4.6 mph WSW7.4 kmh WSW 6.9 mph11.1 kmh 29.69 in1005.4 mb - 0.04 in1.0 mm 0.11 in2.8 mm
04:00 PM 55.3°F12.9°C 53.0°F11.7°C 92% 3.5 mph WSW5.6 kmh WSW 3.5 mph5.6 kmh 29.69 in1005.4 mb - 0.04 in1.0 mm 0.11 in2.8 mm
04:10 PM 55.3°F12.9°C 53.0°F11.7°C 92% 3.5 mph SW5.6 kmh SW 4.6 mph7.4 kmh 29.69 in1005.4 mb - 0.06 in1.5 mm 0.13 in3.3 mm
04:15 PM 55.2°F12.9°C 52.9°F11.6°C 92% 3.5 mph SW5.6 kmh SW 4.6 mph7.4 kmh 29.68 in1005.1 mb - 0.06 in1.5 mm 0.13 in3.3 mm
04:20 PM 55.3°F12.9°C 53.0°F11.7°C 92% 3.5 mph WSW5.6 kmh WSW 3.5 mph5.6 kmh 29.68 in1005.1 mb - 0.06 in1.5 mm 0.13 in3.3 mm
04:25 PM 55.4°F13.0°C 53.1°F11.7°C 92% 3.5 mph SW5.6 kmh SW 4.6 mph7.4 kmh 29.68 in1005.1 mb - 0.06 in1.5 mm 0.14 in3.6 mm
04:30 PM 55.6°F13.1°C 53.3°F11.8°C 92% 5.8 mph WSW9.3 kmh WSW 10.4 mph16.7 kmh 29.67 in1004.7 mb - 0.06 in1.5 mm 0.14 in3.6 mm
04:35 PM 55.6°F13.1°C 53.3°F11.8°C 92% 4.6 mph SW7.4 kmh SW 5.8 mph9.3 kmh 29.67 in1004.7 mb - 0.06 in1.5 mm 0.15 in3.8 mm
04:40 PM 55.5°F13.1°C 53.2°F11.8°C 92% 4.6 mph SW7.4 kmh SW 6.9 mph11.1 kmh 29.68 in1005.1 mb - 0.06 in1.5 mm 0.15 in3.8 mm
04:45 PM 55.5°F13.1°C 53.2°F11.8°C 92% 4.6 mph WSW7.4 kmh WSW 6.9 mph11.1 kmh 29.67 in1004.7 mb - 0.05 in1.3 mm 0.15 in3.8 mm
04:50 PM 55.5°F13.1°C 53.2°F11.8°C 92% 4.6 mph SW7.4 kmh SW 5.8 mph9.3 kmh 29.67 in1004.7 mb - 0.06 in1.5 mm 0.16 in4.1 mm
04:55 PM 55.5°F13.1°C 53.2°F11.8°C 92% 2.3 mph SW3.7 kmh SW 3.5 mph5.6 kmh 29.67 in1004.7 mb - 0.06 in1.5 mm 0.17 in4.3 mm
05:00 PM 55.5°F13.1°C 53.2°F11.8°C 92% 5.8 mph SW9.3 kmh SW 6.9 mph11.1 kmh 29.67 in1004.7 mb - 0.06 in1.5 mm 0.17 in4.3 mm
05:10 PM 55.7°F13.2°C 53.4°F11.9°C 92% 6.9 mph SW11.1 kmh SW 10.4 mph16.7 kmh 29.67 in1004.7 mb - 0.07 in1.8 mm 0.20 in5.1 mm
05:15 PM 55.7°F13.2°C 53.4°F11.9°C 92% 4.6 mph SW7.4 kmh SW 5.8 mph9.3 kmh 29.66 in1004.4 mb - 0.08 in2.0 mm 0.21 in5.3 mm
05:20 PM 55.7°F13.2°C 53.4°F11.9°C 92% 5.8 mph SW9.3 kmh SW 8.1 mph13.0 kmh 29.66 in1004.4 mb - 0.08 in2.0 mm 0.21 in5.3 mm
05:25 PM 55.7°F13.2°C 53.4°F11.9°C 92% 5.8 mph SW9.3 kmh SW 9.2 mph14.8 kmh 29.66 in1004.4 mb - 0.09 in2.3 mm 0.23 in5.8 mm
05:30 PM 55.7°F13.2°C 53.4°F11.9°C 92% 4.6 mph SW7.4 kmh SW 11.5 mph18.5 kmh 29.66 in1004.4 mb - 0.09 in2.3 mm 0.24 in6.1 mm
05:35 PM 55.6°F13.1°C 53.3°F11.8°C 92% 8.1 mph SW13.0 kmh SW 11.5 mph18.5 kmh 29.66 in1004.4 mb - 0.09 in2.3 mm 0.24 in6.1 mm
05:40 PM 55.6°F13.1°C 53.3°F11.8°C 92% 5.8 mph WSW9.3 kmh WSW 12.7 mph20.4 kmh 29.66 in1004.4 mb - 0.09 in2.3 mm 0.24 in6.1 mm
05:45 PM 55.6°F13.1°C 53.3°F11.8°C 92% 8.1 mph WSW13.0 kmh WSW 11.5 mph18.5 kmh 29.66 in1004.4 mb - 0.10 in2.5 mm 0.25 in6.4 mm
05:50 PM 55.7°F13.2°C 53.4°F11.9°C 92% 6.9 mph WSW11.1 kmh WSW 9.2 mph14.8 kmh 29.65 in1004.1 mb - 0.11 in2.8 mm 0.27 in6.9 mm
05:55 PM 55.8°F13.2°C 53.5°F11.9°C 92% 6.9 mph SW11.1 kmh SW 9.2 mph14.8 kmh 29.65 in1004.1 mb - 0.10 in2.5 mm 0.27 in6.9 mm
06:00 PM 55.8°F13.2°C 53.5°F11.9°C 92% 5.8 mph SW9.3 kmh SW 9.2 mph14.8 kmh 29.65 in1004.1 mb - 0.09 in2.3 mm 0.27 in6.9 mm
06:10 PM 55.8°F13.2°C 53.5°F11.9°C 92% 5.8 mph SW9.3 kmh SW 6.9 mph11.1 kmh 29.64 in1003.7 mb - 0.08 in2.0 mm 0.27 in6.9 mm
06:15 PM 55.7°F13.2°C 53.4°F11.9°C 92% 5.8 mph SW9.3 kmh SW 11.5 mph18.5 kmh 29.64 in1003.7 mb - 0.06 in1.5 mm 0.27 in6.9 mm
06:20 PM 55.7°F13.2°C 53.4°F11.9°C 92% 4.6 mph SW7.4 kmh SW 8.1 mph13.0 kmh 29.64 in1003.7 mb - 0.06 in1.5 mm 0.28 in7.1 mm
06:25 PM 55.7°F13.2°C 53.4°F11.9°C 92% 8.1 mph SW13.0 kmh SW 9.2 mph14.8 kmh 29.64 in1003.7 mb - 0.06 in1.5 mm 0.28 in7.1 mm
06:30 PM 55.7°F13.2°C 53.4°F11.9°C 92% 6.9 mph SW11.1 kmh SW 10.4 mph16.7 kmh 29.63 in1003.4 mb - 0.04 in1.0 mm 0.28 in7.1 mm
06:35 PM 55.8°F13.2°C 53.5°F11.9°C 92% 8.1 mph SW13.0 kmh SW 11.5 mph18.5 kmh 29.63 in1003.4 mb - 0.04 in1.0 mm 0.28 in7.1 mm
06:40 PM 55.8°F13.2°C 53.5°F11.9°C 92% 9.2 mph SW14.8 kmh SW 12.7 mph20.4 kmh 29.63 in1003.4 mb - 0.03 in0.8 mm 0.28 in7.1 mm
06:45 PM 55.7°F13.2°C 53.4°F11.9°C 92% 8.1 mph SW13.0 kmh SW 10.4 mph16.7 kmh 29.63 in1003.4 mb - 0.02 in0.5 mm 0.28 in7.1 mm
06:50 PM 55.7°F13.2°C 53.4°F11.9°C 92% 9.2 mph SW14.8 kmh SW 13.8 mph22.2 kmh 29.63 in1003.4 mb - 0.01 in0.3 mm 0.28 in7.1 mm
06:55 PM 55.7°F13.2°C 53.4°F11.9°C 92% 9.2 mph WSW14.8 kmh WSW 11.5 mph18.5 kmh 29.63 in1003.4 mb - 0.01 in0.3 mm 0.28 in7.1 mm
07:00 PM 55.7°F13.2°C 53.4°F11.9°C 92% 9.2 mph SW14.8 kmh SW 15.0 mph24.1 kmh 29.63 in1003.4 mb - 0.01 in0.3 mm 0.28 in7.1 mm
07:10 PM 55.6°F13.1°C 53.3°F11.8°C 92% 11.5 mph SW18.5 kmh SW 15.0 mph24.1 kmh 29.62 in1003.0 mb - 0.01 in0.3 mm 0.28 in7.1 mm
07:15 PM 55.6°F13.1°C 53.3°F11.8°C 92% 11.5 mph WSW18.5 kmh WSW 16.1 mph25.9 kmh 29.62 in1003.0 mb - 0.01 in0.3 mm 0.28 in7.1 mm
07:20 PM 55.7°F13.2°C 53.4°F11.9°C 92% 9.2 mph WSW14.8 kmh WSW 12.7 mph20.4 kmh 29.63 in1003.4 mb - 0.01 in0.3 mm 0.28 in7.1 mm
07:25 PM 55.7°F13.2°C 53.4°F11.9°C 92% 10.4 mph WSW16.7 kmh WSW 15.0 mph24.1 kmh 29.63 in1003.4 mb - 0.00 in0.0 mm 0.28 in7.1 mm
07:30 PM 55.7°F13.2°C 53.4°F11.9°C 92% 10.4 mph WSW16.7 kmh WSW 13.8 mph22.2 kmh 29.62 in1003.0 mb - 0.00 in0.0 mm 0.28 in7.1 mm
07:35 PM 55.8°F13.2°C 53.5°F11.9°C 92% 10.4 mph WSW16.7 kmh WSW 11.5 mph18.5 kmh 29.63 in1003.4 mb - 0.00 in0.0 mm 0.28 in7.1 mm
07:40 PM 55.8°F13.2°C 53.5°F11.9°C 92% 10.4 mph WSW16.7 kmh WSW 13.8 mph22.2 kmh 29.62 in1003.0 mb - 0.00 in0.0 mm 0.28 in7.1 mm
07:45 PM 55.8°F13.2°C 53.8°F12.1°C 93% 6.9 mph WSW11.1 kmh WSW 11.5 mph18.5 kmh 29.62 in1003.0 mb - 0.00 in0.0 mm 0.28 in7.1 mm
07:50 PM 55.8°F13.2°C 53.8°F12.1°C 93% 8.1 mph WSW13.0 kmh WSW 15.0 mph24.1 kmh 29.62 in1003.0 mb - 0.00 in0.0 mm 0.28 in7.1 mm
07:55 PM 55.9°F13.3°C 53.9°F12.2°C 93% 9.2 mph WSW14.8 kmh WSW 11.5 mph18.5 kmh 29.62 in1003.0 mb - 0.00 in0.0 mm 0.28 in7.1 mm
08:00 PM 55.9°F13.3°C 53.9°F12.2°C 93% 8.1 mph SW13.0 kmh SW 11.5 mph18.5 kmh 29.62 in1003.0 mb - 0.00 in0.0 mm 0.28 in7.1 mm
08:10 PM 55.9°F13.3°C 53.9°F12.2°C 93% 10.4 mph SW16.7 kmh SW 13.8 mph22.2 kmh 29.62 in1003.0 mb - 0.01 in0.3 mm 0.28 in7.1 mm
08:15 PM 55.9°F13.3°C 53.9°F12.2°C 93% 10.4 mph WSW16.7 kmh WSW 13.8 mph22.2 kmh 29.62 in1003.0 mb - 0.01 in0.3 mm 0.28 in7.1 mm
08:20 PM 55.9°F13.3°C 53.9°F12.2°C 93% 6.9 mph SW11.1 kmh SW 11.5 mph18.5 kmh 29.62 in1003.0 mb - 0.01 in0.3 mm 0.28 in7.1 mm
08:25 PM 55.9°F13.3°C 53.9°F12.2°C 93% 10.4 mph SW16.7 kmh SW 13.8 mph22.2 kmh 29.62 in1003.0 mb - 0.01 in0.3 mm 0.28 in7.1 mm
08:30 PM 55.9°F13.3°C 53.9°F12.2°C 93% 9.2 mph SW14.8 kmh SW 11.5 mph18.5 kmh 29.62 in1003.0 mb - 0.01 in0.3 mm 0.28 in7.1 mm
08:35 PM 55.9°F13.3°C 53.9°F12.2°C 93% 9.2 mph WSW14.8 kmh WSW 16.1 mph25.9 kmh 29.62 in1003.0 mb - 0.02 in0.5 mm 0.30 in7.6 mm
08:40 PM 55.9°F13.3°C 53.9°F12.2°C 93% 9.2 mph SW14.8 kmh SW 11.5 mph18.5 kmh 29.61 in1002.7 mb - 0.05 in1.3 mm 0.32 in8.1 mm
08:45 PM 55.9°F13.3°C 53.9°F12.2°C 93% 6.9 mph SSW11.1 kmh SSW 11.5 mph18.5 kmh 29.61 in1002.7 mb - 0.06 in1.5 mm 0.33 in8.4 mm
08:50 PM 55.8°F13.2°C 53.8°F12.1°C 93% 8.1 mph SW13.0 kmh SW 11.5 mph18.5 kmh 29.61 in1002.7 mb - 0.06 in1.5 mm 0.33 in8.4 mm
08:55 PM 55.8°F13.2°C 53.8°F12.1°C 93% 6.9 mph SW11.1 kmh SW 9.2 mph14.8 kmh 29.61 in1002.7 mb - 0.06 in1.5 mm 0.34 in8.6 mm
09:00 PM 55.8°F13.2°C 53.8°F12.1°C 93% 9.2 mph SW14.8 kmh SW 13.8 mph22.2 kmh 29.61 in1002.7 mb - 0.06 in1.5 mm 0.34 in8.6 mm
09:10 PM 55.8°F13.2°C 53.8°F12.1°C 93% 8.1 mph SW13.0 kmh SW 11.5 mph18.5 kmh 29.60 in1002.4 mb - 0.08 in2.0 mm 0.36 in9.1 mm
09:15 PM 55.7°F13.2°C 53.7°F12.1°C 93% 6.9 mph SW11.1 kmh SW 9.2 mph14.8 kmh 29.60 in1002.4 mb - 0.09 in2.3 mm 0.37 in9.4 mm
09:20 PM 55.6°F13.1°C 53.6°F12.0°C 93% 6.9 mph SW11.1 kmh SW 10.4 mph16.7 kmh 29.60 in1002.4 mb - 0.09 in2.3 mm 0.37 in9.4 mm
09:25 PM 55.6°F13.1°C 53.6°F12.0°C 93% 9.2 mph SW14.8 kmh SW 15.0 mph24.1 kmh 29.60 in1002.4 mb - 0.09 in2.3 mm 0.37 in9.4 mm
09:30 PM 55.7°F13.2°C 53.7°F12.1°C 93% 9.2 mph WSW14.8 kmh WSW 15.0 mph24.1 kmh 29.60 in1002.4 mb - 0.09 in2.3 mm 0.37 in9.4 mm
09:35 PM 55.7°F13.2°C 53.7°F12.1°C 93% 10.4 mph SW16.7 kmh SW 15.0 mph24.1 kmh 29.60 in1002.4 mb - 0.08 in2.0 mm 0.37 in9.4 mm
09:40 PM 55.7°F13.2°C 53.7°F12.1°C 93% 11.5 mph WSW18.5 kmh WSW 13.8 mph22.2 kmh 29.60 in1002.4 mb - 0.06 in1.5 mm 0.37 in9.4 mm
09:45 PM 55.7°F13.2°C 53.7°F12.1°C 93% 8.1 mph SW13.0 kmh SW 9.2 mph14.8 kmh 29.60 in1002.4 mb - 0.04 in1.0 mm 0.37 in9.4 mm
09:50 PM 55.7°F13.2°C 53.7°F12.1°C 93% 8.1 mph SW13.0 kmh SW 11.5 mph18.5 kmh 29.60 in1002.4 mb - 0.04 in1.0 mm 0.37 in9.4 mm
09:55 PM 55.8°F13.2°C 53.8°F12.1°C 93% 8.1 mph SW13.0 kmh SW 12.7 mph20.4 kmh 29.59 in1002.0 mb - 0.04 in1.0 mm 0.37 in9.4 mm
10:00 PM 55.8°F13.2°C 53.8°F12.1°C 93% 9.2 mph SW14.8 kmh SW 12.7 mph20.4 kmh 29.59 in1002.0 mb - 0.03 in0.8 mm 0.37 in9.4 mm
10:10 PM 55.8°F13.2°C 53.8°F12.1°C 93% 10.4 mph SW16.7 kmh SW 12.7 mph20.4 kmh 29.59 in1002.0 mb - 0.02 in0.5 mm 0.38 in9.7 mm
10:15 PM 55.8°F13.2°C 53.8°F12.1°C 93% 9.2 mph SW14.8 kmh SW 15.0 mph24.1 kmh 29.59 in1002.0 mb - 0.01 in0.3 mm 0.38 in9.7 mm
10:20 PM 55.8°F13.2°C 53.8°F12.1°C 93% 8.1 mph WSW13.0 kmh WSW 11.5 mph18.5 kmh 29.59 in1002.0 mb - 0.01 in0.3 mm 0.38 in9.7 mm
10:25 PM 55.8°F13.2°C 53.8°F12.1°C 93% 6.9 mph SW11.1 kmh SW 9.2 mph14.8 kmh 29.59 in1002.0 mb - 0.02 in0.5 mm 0.39 in9.9 mm
10:30 PM 55.8°F13.2°C 53.8°F12.1°C 93% 9.2 mph SW14.8 kmh SW 11.5 mph18.5 kmh 29.59 in1002.0 mb - 0.02 in0.5 mm 0.39 in9.9 mm
10:35 PM 55.8°F13.2°C 53.8°F12.1°C 93% 8.1 mph SW13.0 kmh SW 15.0 mph24.1 kmh 29.59 in1002.0 mb - 0.02 in0.5 mm 0.39 in9.9 mm
10:40 PM 55.8°F13.2°C 53.8°F12.1°C 93% 8.1 mph SW13.0 kmh SW 11.5 mph18.5 kmh 29.59 in1002.0 mb - 0.02 in0.5 mm 0.39 in9.9 mm
10:45 PM 55.8°F13.2°C 53.8°F12.1°C 93% 11.5 mph SW18.5 kmh SW 17.3 mph27.8 kmh 29.59 in1002.0 mb - 0.02 in0.5 mm 0.39 in9.9 mm
10:50 PM 55.9°F13.3°C 53.9°F12.2°C 93% 11.5 mph WSW18.5 kmh WSW 15.0 mph24.1 kmh 29.59 in1002.0 mb - 0.02 in0.5 mm 0.39 in9.9 mm
10:55 PM 55.9°F13.3°C 53.9°F12.2°C 93% 10.4 mph WSW16.7 kmh WSW 13.8 mph22.2 kmh 29.59 in1002.0 mb - 0.02 in0.5 mm 0.39 in9.9 mm
11:00 PM 55.8°F13.2°C 53.8°F12.1°C 93% 13.8 mph WSW22.2 kmh WSW 16.1 mph25.9 kmh 29.59 in1002.0 mb - 0.02 in0.5 mm 4.55 in115.6 mm
11:10 PM 55.7°F13.2°C 53.7°F12.1°C 93% 9.2 mph WSW14.8 kmh WSW 15.0 mph24.1 kmh 29.59 in1002.0 mb - 0.02 in0.5 mm 4.57 in116.1 mm
11:15 PM 55.7°F13.2°C 53.7°F12.1°C 93% 10.4 mph WSW16.7 kmh WSW 13.8 mph22.2 kmh 29.59 in1002.0 mb - 0.02 in0.5 mm 4.59 in116.6 mm
11:20 PM 55.7°F13.2°C 53.7°F12.1°C 93% 10.4 mph SW16.7 kmh SW 12.7 mph20.4 kmh 29.59 in1002.0 mb - 0.02 in0.5 mm 4.61 in117.1 mm
11:30 PM 55.7°F13.2°C 53.7°F12.1°C 93% 12.7 mph SW20.4 kmh SW 16.1 mph25.9 kmh 29.59 in1002.0 mb - 0.01 in0.3 mm 0.01 in0.3 mm
11:35 PM 55.7°F13.2°C 53.7°F12.1°C 93% 10.4 mph SW16.7 kmh SW 13.8 mph22.2 kmh 29.59 in1002.0 mb - 0.01 in0.3 mm 0.01 in0.3 mm
11:40 PM 55.7°F13.2°C 53.7°F12.1°C 93% 12.7 mph SW20.4 kmh SW 18.4 mph29.6 kmh 29.59 in1002.0 mb - 0.01 in0.3 mm 0.01 in0.3 mm
11:45 PM 55.6°F13.1°C 53.6°F12.0°C 93% 15.0 mph WSW24.1 kmh WSW 17.3 mph27.8 kmh 29.59 in1002.0 mb - 0.01 in0.3 mm 0.01 in0.3 mm
11:50 PM 55.6°F13.1°C 53.6°F12.0°C 93% 10.4 mph WSW16.7 kmh WSW 10.4 mph16.7 kmh 29.59 in1002.0 mb - 0.01 in0.3 mm 0.01 in0.3 mm
11:55 PM 55.5°F13.1°C 53.2°F11.8°C 92% 9.2 mph WSW14.8 kmh WSW 13.8 mph22.2 kmh 29.59 in1002.0 mb - 0.01 in0.3 mm 0.01 in0.3 mm